createdAt,value
2019-05-30T00:00:16.944Z,5.85
2019-05-30T00:02:39.582Z,6.17
2019-05-30T00:05:07.954Z,4.95
2019-05-30T00:07:36.357Z,5.75
2019-05-30T00:10:06.503Z,5.72
2019-05-30T00:12:34.961Z,5.80
2019-05-30T00:15:06.455Z,5.97
2019-05-30T00:17:35.125Z,6.70
2019-05-30T00:20:05.389Z,7.53
2019-05-30T00:22:34.863Z,7.00
2019-05-30T00:25:04.679Z,7.42
2019-05-30T00:27:33.086Z,8.48
2019-05-30T00:30:01.541Z,9.30
2019-05-30T00:32:29.996Z,9.75
2019-05-30T00:34:59.585Z,8.58
2019-05-30T00:37:28.073Z,11.15
2019-05-30T00:39:57.754Z,10.45
2019-05-30T00:42:26.253Z,11.43
2019-05-30T00:44:55.772Z,10.03
2019-05-30T00:47:24.223Z,9.60
2019-05-30T00:49:52.633Z,11.03
2019-05-30T00:52:21.012Z,9.35
2019-05-30T00:54:51.036Z,10.78
2019-05-30T00:57:19.411Z,10.45
2019-05-30T00:59:47.808Z,9.45
2019-05-30T01:02:16.184Z,9.48
2019-05-30T01:04:44.646Z,9.93
2019-05-30T01:07:13.012Z,9.55
2019-05-30T01:09:41.411Z,10.55
2019-05-30T01:12:09.794Z,11.93
2019-05-30T01:14:38.191Z,10.58
2019-05-30T01:17:07.405Z,12.35
2019-05-30T01:19:35.971Z,9.85
2019-05-30T01:22:05.486Z,11.80
2019-05-30T01:24:34.465Z,11.63
2019-05-30T01:27:03.455Z,10.50
2019-05-30T01:29:31.969Z,10.03
2019-05-30T01:32:01.988Z,12.30
2019-05-30T01:34:30.347Z,11.08
2019-05-30T01:36:59.851Z,10.70
2019-05-30T01:39:28.412Z,13.00
2019-05-30T01:41:57.741Z,14.47
2019-05-30T01:44:26.268Z,14.90
2019-05-30T01:46:54.653Z,13.25
2019-05-30T01:49:23.038Z,13.25
2019-05-30T01:51:51.369Z,13.72
2019-05-30T01:54:19.743Z,13.98
2019-05-30T01:56:48.115Z,12.75
2019-05-30T01:59:16.502Z,14.43
2019-05-30T02:01:44.910Z,14.73
2019-05-30T02:04:13.312Z,15.48
2019-05-30T02:06:41.706Z,14.40
2019-05-30T02:09:11.057Z,15.83
2019-05-30T02:11:39.926Z,14.30
2019-05-30T02:14:09.789Z,13.10
2019-05-30T02:16:38.398Z,13.88
2019-05-30T02:19:07.843Z,12.68
2019-05-30T02:21:36.383Z,14.13
2019-05-30T02:24:05.894Z,14.43
2019-05-30T02:26:34.318Z,13.35
2019-05-30T02:29:02.701Z,14.83
2019-05-30T02:31:39.129Z,15.90
2019-05-30T02:34:02.922Z,14.80
2019-05-30T02:36:31.163Z,13.35
2019-05-30T02:39:00.783Z,10.38
2019-05-30T02:41:29.255Z,11.90
2019-05-30T02:43:57.623Z,11.20
2019-05-30T02:46:26.028Z,11.40
2019-05-30T02:48:58.940Z,12.28
2019-05-30T02:51:24.456Z,12.93
2019-05-30T02:53:52.822Z,11.60
2019-05-30T02:56:21.227Z,11.22
2019-05-30T02:58:49.687Z,11.95
2019-05-30T03:01:18.080Z,10.82
2019-05-30T03:03:46.452Z,12.30
2019-05-30T03:06:14.884Z,14.47
2019-05-30T03:08:43.250Z,14.65
2019-05-30T03:11:15.019Z,12.63
2019-05-30T03:13:41.679Z,11.85
2019-05-30T03:16:11.796Z,10.58
2019-05-30T03:18:40.084Z,9.73
2019-05-30T03:21:10.533Z,11.18
2019-05-30T03:23:38.516Z,11.73
2019-05-30T03:26:09.724Z,12.33
2019-05-30T03:28:37.044Z,14.25
2019-05-30T03:31:10.449Z,12.60
2019-05-30T03:33:40.377Z,13.75
2019-05-30T03:36:14.340Z,12.73
2019-05-30T03:38:35.542Z,13.80
2019-05-30T03:41:04.685Z,14.30
2019-05-30T03:43:33.951Z,13.95
2019-05-30T03:46:04.055Z,13.40
2019-05-30T03:48:32.433Z,13.90
2019-05-30T03:51:00.844Z,14.47
2019-05-30T03:53:29.197Z,14.65
2019-05-30T03:56:00.853Z,12.43
2019-05-30T03:58:35.408Z,13.53
2019-05-30T04:01:09.986Z,13.43
2019-05-30T04:03:53.973Z,12.65
2019-05-30T04:06:25.636Z,14.63
2019-05-30T04:08:57.119Z,14.53
2019-05-30T04:11:28.779Z,13.38
2019-05-30T04:14:00.880Z,13.78
2019-05-30T04:16:29.291Z,15.75
2019-05-30T04:18:57.663Z,14.28
2019-05-30T04:21:26.050Z,14.53
2019-05-30T04:23:54.422Z,13.93
2019-05-30T04:26:22.833Z,13.95
2019-05-30T04:28:51.219Z,14.47
2019-05-30T04:31:19.741Z,14.68
2019-05-30T04:33:48.112Z,13.58
2019-05-30T04:36:17.011Z,14.20
2019-05-30T04:38:46.308Z,14.05
2019-05-30T04:41:16.066Z,13.58
2019-05-30T04:43:45.279Z,13.95
2019-05-30T04:46:14.935Z,13.83
2019-05-30T04:48:43.696Z,12.80
2019-05-30T04:51:12.547Z,12.30
2019-05-30T04:53:42.116Z,13.30
2019-05-30T04:56:10.503Z,13.88
2019-05-30T04:58:42.377Z,12.55
2019-05-30T05:01:08.928Z,13.20
2019-05-30T05:03:45.980Z,13.28
2019-05-30T05:06:07.352Z,13.88
2019-05-30T05:08:35.739Z,13.43
2019-05-30T05:11:04.114Z,12.30
2019-05-30T05:13:32.511Z,13.68
2019-05-30T05:16:01.016Z,13.38
2019-05-30T05:18:36.082Z,12.33
2019-05-30T05:21:04.399Z,12.47
2019-05-30T05:23:32.787Z,12.15
2019-05-30T05:26:01.660Z,10.98
2019-05-30T05:28:30.048Z,11.08
2019-05-30T05:30:58.488Z,11.45
2019-05-30T05:33:27.672Z,9.93
2019-05-30T05:35:56.039Z,11.15
2019-05-30T05:38:24.531Z,10.30
2019-05-30T05:40:52.890Z,10.58
2019-05-30T05:43:22.382Z,9.73
2019-05-30T05:45:50.927Z,9.53
2019-05-30T05:48:20.382Z,9.90
2019-05-30T05:50:48.823Z,8.38
2019-05-30T05:53:17.208Z,7.80
2019-05-30T05:55:45.578Z,7.78
2019-05-30T05:58:13.970Z,7.85
2019-05-30T06:00:42.969Z,7.87
2019-05-30T06:03:11.933Z,7.92
2019-05-30T06:05:52.705Z,7.80
2019-05-30T06:08:10.393Z,8.55
2019-05-30T06:10:38.784Z,7.85
2019-05-30T06:13:07.149Z,7.75
2019-05-30T06:15:35.517Z,7.30
2019-05-30T06:18:03.934Z,7.60
2019-05-30T06:20:32.296Z,7.17
2019-05-30T06:23:00.675Z,6.97
2019-05-30T06:25:32.460Z,6.60
2019-05-30T06:27:59.085Z,6.65
2019-05-30T06:30:28.586Z,6.78
2019-05-30T06:32:57.127Z,6.70
2019-05-30T06:35:25.491Z,6.67
2019-05-30T06:37:53.857Z,6.90
2019-05-30T06:40:23.629Z,7.08
2019-05-30T06:42:53.095Z,6.50
2019-05-30T06:45:23.675Z,5.85
2019-05-30T06:47:51.516Z,6.12
2019-05-30T06:50:20.622Z,5.97
2019-05-30T06:52:49.098Z,5.60
2019-05-30T06:55:17.520Z,5.28
2019-05-30T06:57:45.888Z,5.20
2019-05-30T07:00:14.746Z,5.10
2019-05-30T07:02:43.153Z,5.45
2019-05-30T07:05:12.256Z,4.55
2019-05-30T07:07:41.161Z,5.08
2019-05-30T07:10:09.814Z,5.25
2019-05-30T07:12:38.211Z,5.20
2019-05-30T07:15:11.182Z,5.25
2019-05-30T07:17:39.511Z,5.00
2019-05-30T07:20:08.914Z,4.60
2019-05-30T07:22:37.282Z,6.30
2019-05-30T07:25:06.430Z,4.85
2019-05-30T07:27:34.813Z,4.70
2019-05-30T07:30:04.375Z,4.30
2019-05-30T07:32:32.744Z,4.08
2019-05-30T07:35:06.524Z,4.45
2019-05-30T07:37:32.323Z,4.17
2019-05-30T07:40:00.790Z,4.08
2019-05-30T07:42:29.155Z,3.87
2019-05-30T07:44:57.543Z,4.20
2019-05-30T07:47:28.136Z,4.75
2019-05-30T07:49:56.522Z,4.70
2019-05-30T07:52:24.890Z,4.10
2019-05-30T07:54:53.294Z,4.87
2019-05-30T07:57:21.672Z,5.17
2019-05-30T07:59:50.064Z,4.65
2019-05-30T08:02:18.445Z,4.00
2019-05-30T08:04:47.166Z,4.20
2019-05-30T08:07:15.570Z,4.55
2019-05-30T08:09:44.008Z,4.05
2019-05-30T08:12:28.234Z,3.92
2019-05-30T08:14:56.630Z,3.95
2019-05-30T08:17:24.991Z,4.22
2019-05-30T08:19:53.398Z,4.20
2019-05-30T08:22:21.759Z,3.20
2019-05-30T08:24:50.155Z,3.12
2019-05-30T08:27:18.519Z,3.55
2019-05-30T08:29:46.904Z,3.22
2019-05-30T08:32:33.172Z,3.02
2019-05-30T08:35:01.558Z,3.52
2019-05-30T08:37:31.992Z,4.35
2019-05-30T08:40:07.485Z,4.03
2019-05-30T08:42:36.072Z,4.55
2019-05-30T08:45:09.454Z,3.60
2019-05-30T08:47:36.038Z,3.12
2019-05-30T08:50:07.505Z,3.52
2019-05-30T08:52:36.474Z,3.70
2019-05-30T08:55:06.126Z,3.40
2019-05-30T08:57:35.010Z,2.70
2019-05-30T09:00:06.817Z,2.55
2019-05-30T09:02:35.196Z,2.20
2019-05-30T09:05:07.091Z,2.50
2019-05-30T09:07:36.437Z,1.98
2019-05-30T09:10:07.928Z,2.20
2019-05-30T09:12:37.909Z,2.35
2019-05-30T09:15:08.922Z,2.27
2019-05-30T09:17:38.709Z,2.20
2019-05-30T09:20:07.675Z,1.70
2019-05-30T09:22:37.930Z,2.10
2019-05-30T09:25:25.571Z,2.20
2019-05-30T09:27:53.963Z,2.10
2019-05-30T09:30:22.327Z,2.17
2019-05-30T09:32:50.788Z,1.90
2019-05-30T09:35:19.186Z,2.00
2019-05-30T09:37:47.892Z,2.08
2019-05-30T09:40:16.741Z,2.15
2019-05-30T09:42:46.910Z,1.60
2019-05-30T09:45:18.024Z,1.50
2019-05-30T09:47:47.394Z,1.80
2019-05-30T09:50:17.364Z,1.50
2019-05-30T09:52:47.006Z,1.47
2019-05-30T09:55:15.590Z,1.42
2019-05-30T09:57:44.605Z,1.70
2019-05-30T10:00:16.685Z,1.80
2019-05-30T10:02:46.591Z,1.50
2019-05-30T10:05:15.144Z,1.37
2019-05-30T10:07:45.270Z,1.50
2019-05-30T10:10:13.691Z,1.32
2019-05-30T10:12:42.174Z,1.30
2019-05-30T10:15:11.479Z,1.52
2019-05-30T10:17:39.939Z,1.00
2019-05-30T10:20:08.311Z,1.00
2019-05-30T10:22:36.709Z,1.10
2019-05-30T10:25:06.812Z,0.90
2019-05-30T10:27:35.211Z,1.45
2019-05-30T10:30:06.843Z,1.20
2019-05-30T10:32:35.225Z,1.07
2019-05-30T10:35:03.594Z,1.20
2019-05-30T10:37:31.991Z,1.55
2019-05-30T10:40:00.366Z,1.07
2019-05-30T10:42:28.815Z,1.30
2019-05-30T10:44:57.382Z,1.30
2019-05-30T10:47:25.787Z,1.05
2019-05-30T10:49:54.157Z,1.10
2019-05-30T10:52:22.562Z,1.30
2019-05-30T10:54:51.507Z,1.10
2019-05-30T10:57:20.023Z,1.25
2019-05-30T10:59:48.894Z,1.17
2019-05-30T11:02:18.434Z,1.27
2019-05-30T11:04:47.674Z,1.00
2019-05-30T11:07:34.710Z,1.40
2019-05-30T11:10:14.626Z,1.10
2019-05-30T11:12:42.955Z,1.17
2019-05-30T11:15:11.387Z,1.40
2019-05-30T11:17:39.787Z,1.30
2019-05-30T11:20:08.167Z,1.15
2019-05-30T11:22:36.524Z,1.30
2019-05-30T11:25:05.288Z,1.25
2019-05-30T11:27:33.673Z,1.02
2019-05-30T11:30:02.035Z,1.17
2019-05-30T11:32:30.413Z,1.25
2019-05-30T11:34:59.642Z,1.20
2019-05-30T11:37:28.136Z,1.10
2019-05-30T11:39:57.308Z,1.25
2019-05-30T11:42:25.878Z,1.10
2019-05-30T11:44:55.438Z,1.12
2019-05-30T11:47:23.926Z,1.15
2019-05-30T11:49:53.513Z,1.22
2019-05-30T11:52:22.092Z,1.25
2019-05-30T11:54:51.943Z,0.90
2019-05-30T11:57:20.537Z,1.10
2019-05-30T11:59:50.037Z,1.00
2019-05-30T12:02:18.491Z,1.12
2019-05-30T12:04:46.883Z,1.15
2019-05-30T12:07:15.262Z,1.10
2019-05-30T12:09:43.760Z,1.17
2019-05-30T12:12:12.123Z,1.10
2019-05-30T12:14:40.506Z,1.32
2019-05-30T12:17:08.820Z,2.02
2019-05-30T12:19:37.199Z,1.30
2019-05-30T12:22:05.563Z,1.25
2019-05-30T12:24:33.953Z,1.25
2019-05-30T12:27:02.650Z,1.10
2019-05-30T12:29:31.028Z,1.50
2019-05-30T12:32:00.784Z,1.20
2019-05-30T12:34:29.450Z,1.10
2019-05-30T12:36:58.513Z,1.10
2019-05-30T12:39:27.030Z,1.10
2019-05-30T12:41:55.451Z,1.20
2019-05-30T12:44:23.843Z,1.10
2019-05-30T12:46:53.369Z,1.30
2019-05-30T12:49:21.901Z,2.40
2019-05-30T12:51:50.198Z,1.50
2019-05-30T12:54:18.583Z,1.50
2019-05-30T12:56:46.957Z,4.97
2019-05-30T12:59:15.343Z,2.80
2019-05-30T13:01:43.780Z,1.50
2019-05-30T13:04:12.185Z,2.25
2019-05-30T13:06:40.543Z,2.30
2019-05-30T13:09:09.373Z,2.80
2019-05-30T13:11:38.420Z,2.30
2019-05-30T13:14:06.965Z,1.70
2019-05-30T13:16:35.355Z,2.20
2019-05-30T13:19:04.377Z,1.22
2019-05-30T13:21:32.747Z,1.62
2019-05-30T13:24:01.778Z,1.42
2019-05-30T13:26:30.401Z,1.50
2019-05-30T13:29:00.201Z,1.40
2019-05-30T13:31:28.783Z,1.60
2019-05-30T13:33:57.154Z,1.20
2019-05-30T13:36:25.548Z,1.20
2019-05-30T13:38:53.924Z,1.00
2019-05-30T13:41:22.316Z,1.10
2019-05-30T13:43:50.686Z,1.12
2019-05-30T13:46:19.091Z,1.02
2019-05-30T13:48:47.465Z,1.00
2019-05-30T13:51:15.853Z,0.93
2019-05-30T13:53:44.311Z,1.05
2019-05-30T13:56:12.682Z,1.20
2019-05-30T13:58:41.047Z,1.07
2019-05-30T14:01:13.280Z,0.98
2019-05-30T14:03:39.475Z,1.17
2019-05-30T14:06:08.367Z,1.12
2019-05-30T14:08:41.621Z,0.98
2019-05-30T14:11:06.827Z,0.95
2019-05-30T14:13:35.674Z,1.00
2019-05-30T14:16:04.866Z,0.90
2019-05-30T14:18:33.259Z,0.98
2019-05-30T14:21:02.265Z,0.90
2019-05-30T14:23:31.862Z,0.80
2019-05-30T14:26:01.245Z,1.05
2019-05-30T14:28:31.107Z,0.90
2019-05-30T14:30:59.591Z,1.07
2019-05-30T14:33:27.962Z,1.00
2019-05-30T14:35:56.367Z,1.00
2019-05-30T14:38:24.792Z,1.07
2019-05-30T14:40:55.431Z,1.00
2019-05-30T14:43:23.835Z,1.00
2019-05-30T14:45:53.143Z,1.10
2019-05-30T14:48:23.343Z,0.90
2019-05-30T14:50:51.732Z,1.00
2019-05-30T14:53:20.204Z,1.00
2019-05-30T14:55:48.574Z,1.02
2019-05-30T14:58:17.811Z,1.20
2019-05-30T15:00:46.356Z,1.20
2019-05-30T15:03:16.045Z,1.15
2019-05-30T15:05:44.608Z,1.37
2019-05-30T15:08:13.274Z,1.75
2019-05-30T15:10:41.675Z,1.95
2019-05-30T15:13:10.100Z,3.37
2019-05-30T15:15:38.470Z,2.95
2019-05-30T15:18:07.149Z,3.08
2019-05-30T15:20:35.733Z,2.22
2019-05-30T15:23:05.421Z,2.40
2019-05-30T15:25:33.908Z,2.08
2019-05-30T15:28:02.314Z,1.75
2019-05-30T15:30:30.691Z,1.30
2019-05-30T15:32:59.071Z,1.30
2019-05-30T15:35:27.505Z,1.20
2019-05-30T15:37:55.913Z,1.25
2019-05-30T15:40:24.262Z,1.20
2019-05-30T15:42:53.234Z,1.32
2019-05-30T15:45:23.812Z,1.60
2019-05-30T15:47:52.205Z,1.35
2019-05-30T15:50:20.710Z,1.20
2019-05-30T15:52:49.104Z,1.45
2019-05-30T15:55:17.620Z,1.60
2019-05-30T15:57:47.518Z,1.37
2019-05-30T16:00:16.212Z,1.50
2019-05-30T16:02:44.628Z,1.72
2019-05-30T16:05:14.570Z,1.00
2019-05-30T16:07:43.151Z,1.20
2019-05-30T16:10:12.761Z,1.02
2019-05-30T16:12:41.327Z,1.15
2019-05-30T16:15:09.719Z,1.30
2019-05-30T16:17:38.089Z,1.20
2019-05-30T16:20:06.952Z,1.72
2019-05-30T16:22:35.301Z,1.70
2019-05-30T16:25:04.770Z,1.45
2019-05-30T16:27:33.138Z,1.20
2019-05-30T16:30:01.726Z,1.10
2019-05-30T16:32:30.412Z,1.22
2019-05-30T16:34:58.988Z,1.30
2019-05-30T16:37:27.436Z,1.60
2019-05-30T16:40:05.810Z,1.60
2019-05-30T16:42:26.540Z,1.30
2019-05-30T16:44:54.948Z,1.50
2019-05-30T16:47:23.341Z,1.40
2019-05-30T16:49:51.712Z,1.50
2019-05-30T16:52:21.022Z,1.40
2019-05-30T16:54:49.467Z,1.12
2019-05-30T16:57:18.538Z,1.40
2019-05-30T16:59:47.146Z,1.25
2019-05-30T17:02:16.784Z,1.15
2019-05-30T17:04:45.666Z,1.30
2019-05-30T17:07:15.022Z,1.90
2019-05-30T17:09:43.502Z,3.52
2019-05-30T17:12:11.811Z,2.92
2019-05-30T17:14:40.198Z,2.20
2019-05-30T17:17:08.571Z,1.87
2019-05-30T17:19:39.348Z,1.80
2019-05-30T17:22:07.151Z,1.70
2019-05-30T17:24:35.550Z,1.40
2019-05-30T17:27:03.930Z,2.00
2019-05-30T17:29:32.305Z,1.60
2019-05-30T17:32:00.672Z,1.77
2019-05-30T17:34:29.061Z,1.92
2019-05-30T17:36:57.487Z,1.72
2019-05-30T17:39:26.675Z,1.98
2019-05-30T17:41:55.110Z,1.77
2019-05-30T17:44:23.499Z,2.08
2019-05-30T17:46:51.857Z,2.22
2019-05-30T17:49:21.650Z,2.10
2019-05-30T17:51:50.089Z,2.05
2019-05-30T17:54:19.654Z,2.33
2019-05-30T17:56:48.115Z,1.85
2019-05-30T17:59:16.507Z,1.70
2019-05-30T18:01:44.869Z,1.80
2019-05-30T18:04:13.274Z,2.00
2019-05-30T18:06:41.712Z,1.47
2019-05-30T18:09:10.296Z,1.85
2019-05-30T18:11:38.675Z,1.65
2019-05-30T18:14:07.059Z,1.90
2019-05-30T18:16:35.478Z,1.22
2019-05-30T18:19:03.870Z,1.30
2019-05-30T18:21:34.983Z,1.50
2019-05-30T18:24:03.424Z,1.35
2019-05-30T18:26:31.965Z,1.20
2019-05-30T18:29:00.443Z,1.30
2019-05-30T18:31:30.049Z,1.00
2019-05-30T18:33:58.660Z,1.10
2019-05-30T18:36:28.159Z,1.17
2019-05-30T18:38:56.898Z,1.12
2019-05-30T18:41:25.268Z,1.07
2019-05-30T18:43:54.177Z,1.50
2019-05-30T18:46:23.015Z,1.77
2019-05-30T18:48:51.715Z,1.37
2019-05-30T18:51:20.154Z,1.22
2019-05-30T18:53:48.482Z,1.60
2019-05-30T18:56:16.856Z,1.32
2019-05-30T18:58:45.288Z,1.00
2019-05-30T19:01:13.674Z,1.00
2019-05-30T19:03:42.037Z,1.10
2019-05-30T19:06:10.571Z,1.30
2019-05-30T19:08:39.067Z,1.10
2019-05-30T19:11:07.463Z,1.12
2019-05-30T19:13:35.807Z,1.15
2019-05-30T19:16:04.514Z,1.20
2019-05-30T19:18:33.652Z,1.00
2019-05-30T19:21:02.013Z,1.10
2019-05-30T19:23:30.417Z,1.80
2019-05-30T19:25:58.746Z,1.45
2019-05-30T19:28:28.434Z,1.20
2019-05-30T19:30:56.923Z,1.10
2019-05-30T19:33:26.608Z,1.30
2019-05-30T19:35:55.110Z,1.60
2019-05-30T19:38:23.481Z,1.32
2019-05-30T19:40:51.865Z,1.62
2019-05-30T19:43:20.164Z,1.20
2019-05-30T19:45:48.568Z,1.20
2019-05-30T19:48:16.926Z,1.30
2019-05-30T19:50:45.320Z,1.30
2019-05-30T19:53:13.700Z,1.37
2019-05-30T19:55:42.081Z,1.20
2019-05-30T19:58:10.468Z,1.22
2019-05-30T20:00:57.479Z,1.25
2019-05-30T20:03:08.887Z,1.30
2019-05-30T20:05:37.296Z,1.10
2019-05-30T20:08:05.634Z,1.35
2019-05-30T20:10:35.005Z,1.50
2019-05-30T20:13:03.425Z,1.45
2019-05-30T20:15:31.812Z,1.50
2019-05-30T20:18:00.183Z,1.32
2019-05-30T20:20:28.509Z,1.45
2019-05-30T20:22:56.899Z,1.52
2019-05-30T20:25:25.322Z,1.67
2019-05-30T20:27:53.697Z,1.67
2019-05-30T20:30:23.063Z,1.62
2019-05-30T20:32:51.509Z,1.52
2019-05-30T20:35:19.827Z,1.60
2019-05-30T20:37:48.216Z,1.27
2019-05-30T20:40:16.833Z,1.57
2019-05-30T20:42:45.327Z,1.45
2019-05-30T20:45:13.695Z,1.75
2019-05-30T20:47:43.120Z,1.50
2019-05-30T20:50:15.037Z,1.60
2019-05-30T20:52:45.511Z,1.50
2019-05-30T20:55:13.886Z,2.20
2019-05-30T20:57:42.551Z,2.60
2019-05-30T21:00:12.012Z,7.58
2019-05-30T21:02:40.854Z,3.30
2019-05-30T21:05:10.421Z,4.28
2019-05-30T21:07:39.814Z,1.90
2019-05-30T21:10:08.219Z,2.10
2019-05-30T21:12:41.034Z,1.82
2019-05-30T21:15:07.396Z,1.45
2019-05-30T21:17:35.897Z,1.60
2019-05-30T21:20:05.781Z,1.87
2019-05-30T21:22:34.151Z,1.55
2019-05-30T21:25:02.542Z,1.30
2019-05-30T21:27:30.935Z,1.77
2019-05-30T21:29:59.298Z,1.72
2019-05-30T21:32:27.759Z,1.90
2019-05-30T21:34:56.231Z,1.55
2019-05-30T21:37:24.570Z,1.77
2019-05-30T21:39:52.938Z,1.80
2019-05-30T21:42:21.323Z,1.85
2019-05-30T21:44:52.359Z,2.08
2019-05-30T21:47:19.775Z,1.70
2019-05-30T21:49:49.197Z,1.70
2019-05-30T21:52:17.691Z,1.87
2019-05-30T21:54:46.112Z,2.10
2019-05-30T21:57:14.496Z,2.40
2019-05-30T21:59:42.857Z,2.35
2019-05-30T22:02:11.239Z,2.92
2019-05-30T22:04:40.453Z,2.75
2019-05-30T22:07:08.928Z,2.10
2019-05-30T22:09:37.389Z,2.90
2019-05-30T22:12:06.205Z,2.15
2019-05-30T22:14:34.588Z,2.20
2019-05-30T22:17:02.982Z,2.30
2019-05-30T22:19:31.399Z,2.02
2019-05-30T22:21:59.776Z,2.02
2019-05-30T22:24:28.163Z,1.98
2019-05-30T22:26:56.541Z,1.90
2019-05-30T22:29:24.936Z,1.80
2019-05-30T22:31:53.639Z,1.72
2019-05-30T22:34:22.122Z,1.50
2019-05-30T22:36:53.013Z,2.00
2019-05-30T22:39:21.415Z,1.92
2019-05-30T22:41:50.015Z,1.85
2019-05-30T22:44:18.537Z,1.72
2019-05-30T22:46:47.872Z,2.00
2019-05-30T22:49:16.552Z,2.10
2019-05-30T22:51:45.024Z,2.30
2019-05-30T22:54:13.581Z,2.00
2019-05-30T22:56:41.916Z,2.08
2019-05-30T22:59:10.336Z,2.20
2019-05-30T23:01:38.702Z,2.05
2019-05-30T23:04:07.162Z,1.90
2019-05-30T23:06:35.525Z,1.95
2019-05-30T23:09:05.952Z,2.12
2019-05-30T23:11:34.323Z,2.40
2019-05-30T23:14:02.711Z,1.57
2019-05-30T23:16:31.087Z,2.08
2019-05-30T23:18:59.471Z,1.80
2019-05-30T23:21:27.869Z,2.10
2019-05-30T23:23:57.269Z,2.12
2019-05-30T23:26:25.727Z,1.95
2019-05-30T23:28:54.119Z,1.90
2019-05-30T23:31:22.485Z,1.87
2019-05-30T23:33:50.808Z,1.92
2019-05-30T23:36:19.177Z,1.90
2019-05-30T23:38:48.574Z,1.85
2019-05-30T23:41:17.058Z,2.00
2019-05-30T23:43:55.946Z,2.00
2019-05-30T23:46:15.480Z,1.80
2019-05-30T23:48:43.862Z,2.00
2019-05-30T23:51:12.331Z,1.77
2019-05-30T23:53:40.711Z,2.00
2019-05-30T23:56:09.103Z,2.05
2019-05-30T23:58:37.472Z,2.25
